Time;durP1;ratioP1;P1;durP2;ratioP2;P2;SDS_P1;SDS_P2;PMS_P1;PMS_P2;Temp;Humidity;BMP_temperature;BMP_pressure;BME280_temperature;BME280_humidity;BME280_pressure;Samples;Min_cycle;Max_cycle;Signal;HPM_P1;HPM_P2
2022/02/09 00:00:25;;;;;;;13.2;8.3;;;;;;;;;;;;;
2022/02/09 00:03:02;;;;;;;13.5;8.3;;;;;;;;;;;;;
2022/02/09 00:05:40;;;;;;;12.4;7.7;;;;;;;;;;;;;
2022/02/09 00:07:49;;;;;;;9.8;6.4;;;;;;;;;;;;;
2022/02/09 00:10:09;;;;;;;7.9;5.1;;;;;;;;;;;;;
2022/02/09 00:12:50;;;;;;;6.3;4.4;;;;;;;;;;;;;
2022/02/09 00:15:31;;;;;;;5.5;3.7;;;;;;;;;;;;;
2022/02/09 00:18:01;;;;;;;6.6;4.2;;;;;;;;;;;;;
2022/02/09 00:20:59;;;;;;;4.1;3.1;;;;;;;;;;;;;
2022/02/09 00:23:29;;;;;;;6.5;3.8;;;;;;;;;;;;;
2022/02/09 00:26:20;;;;;;;5.4;3.8;;;;;;;;;;;;;
2022/02/09 00:28:10;;;;;;;6.5;4.8;;;;;;;;;;;;;
2022/02/09 00:30:53;;;;;;;7.4;5.1;;;;;;;;;;;;;
2022/02/09 00:32:59;;;;;;;9.3;6.4;;;;;;;;;;;;;
2022/02/09 00:38:14;;;;;;;10.6;6.9;;;;;;;;;;;;;
2022/02/09 00:40:50;;;;;;;10.5;7.1;;;;;;;;;;;;;
2022/02/09 00:43:09;;;;;;;8.7;6.6;;;;;;;;;;;;;
2022/02/09 00:58:47;;;;;;;7.5;5.4;;;;;;;;;;;;;
2022/02/09 01:02:47;;;;;;;5.9;4.4;;;;;;;;;;;;;
2022/02/09 01:38:47;;;;;;;9;5.7;;;;;;;;;;;;;
2022/02/09 01:44:29;;;;;;;7.4;4.7;;;;;;;;;;;;;
2022/02/09 01:51:16;;;;;;;5;3.1;;;;;;;;;;;;;
2022/02/09 01:55:34;;;;;;;4.3;3;;;;;;;;;;;;;
2022/02/09 01:58:00;;;;;;;4;3;;;;;;;;;;;;;
2022/02/09 02:00:26;;;;;;;3.5;2.6;;;;;;;;;;;;;
2022/02/09 02:02:51;;;;;;;3.6;2.5;;;;;;;;;;;;;
2022/02/09 02:05:17;;;;;;;4.7;3.1;;;;;;;;;;;;;
2022/02/09 02:07:49;;;;;;;3.4;2.9;;;;;;;;;;;;;
2022/02/09 02:10:11;;;;;;;4.3;3;;;;;;;;;;;;;
2022/02/09 02:12:37;;;;;;;3.4;2.6;;;;;;;;;;;;;
2022/02/09 02:15:14;;;;;;;3.6;2.4;;;;;;;;;;;;;
2022/02/09 02:17:31;;;;;;;3.8;2.9;;;;;;;;;;;;;
2022/02/09 02:19:54;;;;;;;4.2;2.6;;;;;;;;;;;;;
2022/02/09 02:22:32;;;;;;;3.3;2.5;;;;;;;;;;;;;
2022/02/09 02:25:31;;;;;;;4.1;2.8;;;;;;;;;;;;;
2022/02/09 02:27:36;;;;;;;3.6;2.7;;;;;;;;;;;;;
2022/02/09 02:29:57;;;;;;;3.6;2.5;;;;;;;;;;;;;
2022/02/09 02:32:26;;;;;;;3.7;2.4;;;;;;;;;;;;;
2022/02/09 02:35:01;;;;;;;3.7;2.8;;;;;;;;;;;;;
2022/02/09 02:37:08;;;;;;;4.3;2.8;;;;;;;;;;;;;
2022/02/09 02:39:46;;;;;;;3.9;2.5;;;;;;;;;;;;;
2022/02/09 02:47:08;;;;;;;2.8;2.3;;;;;;;;;;;;;
2022/02/09 03:08:45;;;;;;;6.9;3.6;;;;;;;;;;;;;
2022/02/09 03:11:02;;;;;;;7.2;3.4;;;;;;;;;;;;;
2022/02/09 03:13:11;;;;;;;9.8;3.9;;;;;;;;;;;;;
2022/02/09 03:15:38;;;;;;;8.2;4;;;;;;;;;;;;;
2022/02/09 03:18:16;;;;;;;8.6;4.2;;;;;;;;;;;;;
2022/02/09 03:20:29;;;;;;;6.9;4.3;;;;;;;;;;;;;
2022/02/09 03:22:56;;;;;;;6.7;3.9;;;;;;;;;;;;;
2022/02/09 03:30:56;;;;;;;5.3;3.6;;;;;;;;;;;;;
2022/02/09 03:42:37;;;;;;;4.8;2.8;;;;;;;;;;;;;
2022/02/09 03:45:12;;;;;;;5.5;2.4;;;;;;;;;;;;;
2022/02/09 03:47:20;;;;;;;3.3;2.3;;;;;;;;;;;;;
2022/02/09 03:49:39;;;;;;;3.9;2.9;;;;;;;;;;;;;
2022/02/09 03:52:02;;;;;;;2.8;2.2;;;;;;;;;;;;;
2022/02/09 03:54:27;;;;;;;3.4;2.4;;;;;;;;;;;;;
2022/02/09 03:56:56;;;;;;;4.3;2.7;;;;;;;;;;;;;
2022/02/09 03:59:09;;;;;;;4.1;2.5;;;;;;;;;;;;;
2022/02/09 04:02:38;;;;;;;2.7;2;;;;;;;-1.61;96.10156;950.4231;;;;
2022/02/09 04:05:17;;;;;;;3.2;2.4;;;;;;;-1.64;96.01563;950.3752;;;;
2022/02/09 04:07:41;;;;;;;3.1;2.2;;;;;;;-1.67;96.35059;950.2924;;;;
2022/02/09 04:10:19;;;;;;;2.4;2;;;;;;;-1.59;96.29199;950.2553;;;;
2022/02/09 04:12:51;;;;;;;3;2.2;;;;;;;-1.61;96.19727;950.2062;;;;
2022/02/09 04:15:25;;;;;;;2.4;1.8;;;;;;;-1.6;97;950.177;;;;
2022/02/09 04:17:46;;;;;;;3;2.1;;;;;;;-1.57;97.16406;950.1156;;;;
2022/02/09 04:20:24;;;;;;;2.4;1.9;;;;;;;-1.46;98.30957;950.1119;;;;
2022/02/09 04:35:59;;;;;;;2.2;1.7;;;;;;;-1.5;98.02441;950.0783;;;;
2022/02/09 04:37:14;;;;;;;5.2;3.3;;;;;;;-1.25;94.57129;949.9092;;;;
2022/02/09 04:39:43;;;;;;;12.5;6.8;;;;;;;-1.34;94.81738;949.9229;;;;
2022/02/09 04:42:35;;;;;;;11.5;6.6;;;;;;;-1.38;94.75195;949.8716;;;;
2022/02/09 04:44:55;;;;;;;8.4;5.4;;;;;;;-1.45;94.62695;949.754;;;;
2022/02/09 04:47:19;;;;;;;7.3;4.9;;;;;;;-1.62;94.67676;949.7327;;;;
2022/02/09 04:51:59;;;;;;;5.3;3.9;;;;;;;-1.71;95.34375;949.736;;;;
2022/02/09 04:54:24;;;;;;;6;4.5;;;;;;;-1.69;96.02539;949.6719;;;;
2022/02/09 04:56:43;;;;;;;7.3;4.7;;;;;;;-1.57;95.82129;949.6708;;;;
2022/02/09 04:59:11;;;;;;;6.9;4.6;;;;;;;-1.63;95.44043;949.6576;;;;
2022/02/09 05:01:50;;;;;;;6.2;4.3;;;;;;;-1.66;95.00098;949.6797;;;;
2022/02/09 05:04:46;;;;;;;8.8;4.8;;;;;;;-1.69;94.64941;949.5958;;;;
2022/02/09 05:21:25;;;;;;;8.4;4.9;;;;;;;-1.95;95.34473;949.5812;;;;
2022/02/09 05:23:44;;;;;;;5.7;4.1;;;;;;;-1.95;95.85645;949.553;;;;
2022/02/09 05:26:06;;;;;;;6;4.5;;;;;;;-2.02;95.46094;949.6158;;;;
2022/02/09 05:28:24;;;;;;;3.8;3.5;;;;;;;-2.02;96.49219;949.5128;;;;
2022/02/09 05:30:51;;;;;;;5.1;4.4;;;;;;;-1.98;96.92383;949.5129;;;;
2022/02/09 05:33:14;;;;;;;8.2;6.3;;;;;;;-1.9;97.1416;949.4678;;;;
2022/02/09 05:35:44;;;;;;;11;7.1;;;;;;;-1.78;95.81836;949.5541;;;;
2022/02/09 05:38:08;;;;;;;10.1;7.8;;;;;;;-1.75;94.82617;949.6038;;;;
2022/02/09 05:40:38;;;;;;;8.5;6.1;;;;;;;-1.58;94.71973;949.6125;;;;
2022/02/09 05:43:09;;;;;;;8.2;5.4;;;;;;;-1.79;94.9375;949.642;;;;
2022/02/09 05:45:56;;;;;;;7.2;5.2;;;;;;;-1.85;95.32422;949.6272;;;;
2022/02/09 05:49:12;;;;;;;6.6;4.4;;;;;;;-1.92;95.54102;949.5798;;;;
2022/02/09 05:50:41;;;;;;;5.2;3.7;;;;;;;-1.96;96.39551;949.6221;;;;
2022/02/09 05:53:11;;;;;;;5;4.2;;;;;;;-1.97;96.42676;949.613;;;;
2022/02/09 05:55:46;;;;;;;6.3;4.4;;;;;;;-1.95;96.38867;949.5754;;;;
2022/02/09 05:58:07;;;;;;;4.3;3.8;;;;;;;-1.84;95.42676;949.5877;;;;
2022/02/09 06:00:21;;;;;;;4.3;3.4;;;;;;;-1.91;95.2793;949.4733;;;;
2022/02/09 06:02:50;;;;;;;4.3;3.9;;;;;;;-1.87;95.62012;949.5558;;;;
2022/02/09 06:05:16;;;;;;;4.2;3.5;;;;;;;-1.91;95.375;949.5109;;;;
2022/02/09 06:07:42;;;;;;;6.2;4.3;;;;;;;-1.95;95.26855;949.5458;;;;
2022/02/09 06:10:15;;;;;;;6.7;5.9;;;;;;;-1.85;95.56836;949.5419;;;;
2022/02/09 06:12:42;;;;;;;6.8;5;;;;;;;-1.87;94.9082;949.5248;;;;
2022/02/09 06:15:32;;;;;;;6.9;6.2;;;;;;;-2.05;95.49902;949.577;;;;
2022/02/09 06:19:53;;;;;;;7.8;6.1;;;;;;;-1.95;94.83594;949.6291;;;;
2022/02/09 06:22:15;;;;;;;6.1;4.9;;;;;;;-1.97;94.59766;949.5645;;;;
2022/02/09 06:24:44;;;;;;;5.5;4.7;;;;;;;-1.85;94.30469;949.7129;;;;
2022/02/09 06:27:09;;;;;;;7.8;4.6;;;;;;;-1.75;93.35059;949.7028;;;;
2022/02/09 06:29:39;;;;;;;4.7;4.1;;;;;;;-1.91;93.91113;949.731;;;;
2022/02/09 06:32:08;;;;;;;7.5;4.3;;;;;;;-1.94;93.97168;949.7766;;;;
2022/02/09 06:34:28;;;;;;;6.4;4.8;;;;;;;-1.97;94.43066;949.6484;;;;
2022/02/09 06:37:10;;;;;;;6.5;5;;;;;;;-1.89;94.56055;949.697;;;;
2022/02/09 06:39:25;;;;;;;10.2;6;;;;;;;-1.78;94.5293;949.6177;;;;
2022/02/09 06:41:49;;;;;;;9.2;6.7;;;;;;;-1.8;94.40332;949.6394;;;;
2022/02/09 06:44:14;;;;;;;8.9;6.2;;;;;;;-1.84;94.56152;949.8578;;;;
2022/02/09 06:46:40;;;;;;;7.9;5.6;;;;;;;-1.75;95.13672;949.8901;;;;
2022/02/09 06:49:06;;;;;;;7.3;5;;;;;;;-1.55;94.10449;949.8535;;;;
2022/02/09 06:51:33;;;;;;;8.2;5.3;;;;;;;-1.62;94.17773;949.8661;;;;
2022/02/09 06:54:02;;;;;;;7.3;5.2;;;;;;;-1.55;93.24121;949.9125;;;;
2022/02/09 06:56:38;;;;;;;6.2;4.8;;;;;;;-1.61;93.23633;949.924;;;;
2022/02/09 06:58:58;;;;;;;7.5;4.6;;;;;;;-1.69;93.22949;950.0108;;;;
2022/02/09 07:01:14;;;;;;;6.6;4.9;;;;;;;-1.76;93.8457;949.9914;;;;
2022/02/09 07:03:39;;;;;;;6.3;4.7;;;;;;;-1.69;93.49512;949.9899;;;;
2022/02/09 07:06:09;;;;;;;6.6;4.6;;;;;;;-1.59;94.41602;950.1097;;;;
2022/02/09 07:08:35;;;;;;;5.5;4.2;;;;;;;-1.44;93.78516;950.1167;;;;
2022/02/09 07:11:08;;;;;;;7.2;4.6;;;;;;;-1.6;94.56055;950.1555;;;;
2022/02/09 07:13:32;;;;;;;5.6;4.2;;;;;;;-1.39;95.61816;950.1752;;;;
2022/02/09 07:16:04;;;;;;;6.5;4.4;;;;;;;-0.75;94.08203;950.1244;;;;
2022/02/09 07:18:27;;;;;;;5.8;4.8;;;;;;;-0.07;89.58008;950.0637;;;;
2022/02/09 07:20:59;;;;;;;8.7;4.9;;;;;;;0.84;87.08203;950.0917;;;;
2022/02/09 07:23:24;;;;;;;7.5;4.2;;;;;;;2.04;81.48633;950.0059;;;;
2022/02/09 07:25:48;;;;;;;6.3;4.2;;;;;;;2.13;76.96973;949.9743;;;;
2022/02/09 07:28:09;;;;;;;4.2;3.8;;;;;;;2.88;75.03125;949.9863;;;;
2022/02/09 07:30:43;;;;;;;4.9;4;;;;;;;2.29;76.04883;950.0789;;;;
2022/02/09 07:33:08;;;;;;;4.7;3.7;;;;;;;2.18;77.88672;950.1083;;;;
2022/02/09 07:35:39;;;;;;;6.6;4.7;;;;;;;2.31;76.05078;950.0496;;;;
2022/02/09 07:38:08;;;;;;;11.3;7.9;;;;;;;1.94;76.93555;950.0601;;;;
2022/02/09 07:40:40;;;;;;;13.3;9.4;;;;;;;1.87;77.85254;950.0416;;;;
2022/02/09 07:43:09;;;;;;;7.8;6.6;;;;;;;1.97;77.09863;949.9762;;;;
2022/02/09 07:48:13;;;;;;;6;4.3;;;;;;;2.43;75.12109;949.9734;;;;
2022/02/09 07:50:39;;;;;;;6.8;4.8;;;;;;;2.84;74.55371;949.9622;;;;
2022/02/09 07:52:53;;;;;;;7.9;5.3;;;;;;;2.91;74.25195;949.9219;;;;
2022/02/09 07:55:12;;;;;;;21.7;13.3;;;;;;;3.04;74.29785;949.8928;;;;
2022/02/09 07:57:40;;;;;;;26.7;16.1;;;;;;;3.45;72.77344;949.8527;;;;
2022/02/09 08:00:08;;;;;;;19.6;13.4;;;;;;;3.71;70.99707;949.8323;;;;
2022/02/09 08:02:31;;;;;;;21;13.8;;;;;;;3.84;70.2207;949.7395;;;;
2022/02/09 08:04:56;;;;;;;12.7;8.5;;;;;;;3.9;70.01855;949.7651;;;;
2022/02/09 08:07:27;;;;;;;15;8.4;;;;;;;4.11;69.72656;949.6914;;;;
2022/02/09 08:09:51;;;;;;;11.5;7.6;;;;;;;4.05;68.89551;949.6275;;;;
2022/02/09 08:12:37;;;;;;;13.6;8.3;;;;;;;4.43;68.04492;949.6641;;;;
2022/02/09 08:27:35;;;;;;;6.1;4.5;;;;;;;6.69;61.29883;949.3217;;;;
2022/02/09 08:29:59;;;;;;;6.3;5;;;;;;;6.87;60.38477;949.3293;;;;
2022/02/09 08:32:39;;;;;;;6.3;4.8;;;;;;;7.38;57.7373;949.2355;;;;
2022/02/09 08:34:41;;;;;;;4.8;4;;;;;;;7.98;55.18555;949.2495;;;;
2022/02/09 08:37:12;;;;;;;3.4;3;;;;;;;7.51;55.89453;949.1997;;;;
2022/02/09 08:39:41;;;;;;;8;4.7;;;;;;;8.09;55.48242;949.1945;;;;
2022/02/09 08:42:06;;;;;;;6.9;4.8;;;;;;;8.16;54.67383;949.1713;;;;
2022/02/09 08:44:34;;;;;;;5.8;4.6;;;;;;;9.92;50.51953;949.0632;;;;
2022/02/09 08:46:59;;;;;;;7.3;4.9;;;;;;;9.08;52.17285;949.0681;;;;
2022/02/09 08:49:26;;;;;;;10.4;7.7;;;;;;;8.33;54.17383;949.1669;;;;
2022/02/09 08:51:50;;;;;;;6.4;4.7;;;;;;;10.83;48.21484;949.066;;;;
2022/02/09 08:54:20;;;;;;;6.8;4;;;;;;;11.48;46.11328;949.0246;;;;
2022/02/09 08:56:45;;;;;;;9.9;5.4;;;;;;;10.77;47.38574;949.0323;;;;
2022/02/09 08:59:12;;;;;;;10.8;5.9;;;;;;;9.49;49.51172;948.9783;;;;
2022/02/09 09:01:43;;;;;;;8;5;;;;;;;8.1;53.64355;949.0653;;;;
2022/02/09 09:04:14;;;;;;;10.7;8.1;;;;;;;7.33;57.19824;949.0594;;;;
2022/02/09 09:06:31;;;;;;;20;17.8;;;;;;;6.82;59.29004;949.0754;;;;
2022/02/09 09:09:17;;;;;;;6.4;4.9;;;;;;;6.23;61.69629;949.0112;;;;
2022/02/09 09:11:49;;;;;;;4.4;3.2;;;;;;;6.1;61.9043;949.072;;;;
2022/02/09 09:17:17;;;;;;;3.6;2.7;;;;;;;4.99;65.60938;949.0436;;;;
2022/02/09 09:19:28;;;;;;;3.3;2.7;;;;;;;4.81;66.76563;949.1323;;;;
2022/02/09 09:58:00;;;;;;;4;3.3;;;;;;;5.32;67.27344;949.0899;;;;
2022/02/09 09:58:15;;;;;;;1.1;1;;;;;;;9.16;55.31348;949.1025;;;;
2022/02/09 10:03:09;;;;;;;1.1;1;;;;;;;9.6;50.5166;949.0889;;;;
2022/02/09 10:32:52;;;;;;;17.8;8.7;;;;;;;9.46;49.38379;948.9581;;;;
2022/02/09 10:35:27;;;;;;;8.5;4.9;;;;;;;10.64;47.17676;948.8942;;;;
2022/02/09 10:37:46;;;;;;;6.9;3.5;;;;;;;11.22;44.55273;948.8938;;;;
2022/02/09 10:40:14;;;;;;;2.7;1.7;;;;;;;11.34;45.06836;948.8113;;;;
2022/02/09 10:42:37;;;;;;;6.1;3.4;;;;;;;11.15;45.67773;948.8423;;;;
2022/02/09 10:45:17;;;;;;;5.5;3.4;;;;;;;10.43;49.45996;948.8565;;;;
2022/02/09 10:47:28;;;;;;;3.8;2.1;;;;;;;9.88;48.71387;948.7933;;;;
2022/02/09 10:49:53;;;;;;;5.9;3.2;;;;;;;9.01;50.01465;948.7305;;;;
2022/02/09 10:52:19;;;;;;;3.1;2.3;;;;;;;8.96;51.96582;948.8375;;;;
2022/02/09 10:54:45;;;;;;;3;2.1;;;;;;;8.83;53.24609;948.7547;;;;
2022/02/09 10:57:12;;;;;;;1.8;1.3;;;;;;;8.36;54.37012;948.7634;;;;
2022/02/09 10:59:40;;;;;;;2;1.4;;;;;;;8.17;53.89258;948.7586;;;;
2022/02/09 11:02:02;;;;;;;1.3;1.1;;;;;;;8.19;53.01855;948.7322;;;;
2022/02/09 11:04:30;;;;;;;1.9;1.1;;;;;;;7.75;56.45996;948.7048;;;;
2022/02/09 11:06:55;;;;;;;1.5;1.1;;;;;;;7.3;59.2334;948.6985;;;;
2022/02/09 11:09:25;;;;;;;1.2;1;;;;;;;6.89;59.81152;948.73;;;;
2022/02/09 11:11:56;;;;;;;1.9;1.2;;;;;;;7.2;58.4707;948.6694;;;;
2022/02/09 11:14:25;;;;;;;0.8;0.8;;;;;;;7.48;56.20703;948.6547;;;;
2022/02/09 11:16:56;;;;;;;1.6;1;;;;;;;7.75;55.09863;948.647;;;;
2022/02/09 11:19:24;;;;;;;1.2;1.1;;;;;;;8;54.13184;948.7363;;;;
2022/02/09 11:21:51;;;;;;;0.8;0.7;;;;;;;7.88;54.51465;948.6852;;;;
2022/02/09 11:24:15;;;;;;;1.4;0.9;;;;;;;8.15;52.99219;948.6063;;;;
2022/02/09 11:26:48;;;;;;;1.4;1;;;;;;;8.39;52.6582;948.528;;;;
2022/02/09 11:29:10;;;;;;;1.5;1.1;;;;;;;8.53;52.6875;948.5798;;;;
2022/02/09 11:31:38;;;;;;;1.8;1.3;;;;;;;9.4;50.9375;948.4712;;;;
2022/02/09 11:34:18;;;;;;;1.4;1.3;;;;;;;10.55;49.0293;948.452;;;;
2022/02/09 11:36:40;;;;;;;2;1.2;;;;;;;11.92;43.08984;948.4445;;;;
2022/02/09 11:39:11;;;;;;;2.8;2.1;;;;;;;13.28;39.03125;948.3697;;;;
2022/02/09 11:41:35;;;;;;;2.9;1.9;;;;;;;13.55;39.14844;948.3677;;;;
2022/02/09 11:44:10;;;;;;;1.7;1.4;;;;;;;14.56;38.12109;948.377;;;;
2022/02/09 11:46:36;;;;;;;1.7;1.6;;;;;;;15.74;36.13281;948.351;;;;
2022/02/09 11:49:15;;;;;;;1.9;1.4;;;;;;;16.91;33.65625;948.3064;;;;
2022/02/09 11:51:32;;;;;;;1.8;1.6;;;;;;;18.71;29.90918;948.2732;;;;
2022/02/09 11:56:45;;;;;;;0.8;0.7;;;;;;;17.82;29.16406;948.2503;;;;
2022/02/09 12:01:16;;;;;;;0.6;0.5;;;;;;;20.82;25.50586;948.1953;;;;
2022/02/09 12:10:52;;;;;;;0.5;0.5;;;;;;;21.25;24.23145;948.0325;;;;
2022/02/09 12:13:16;;;;;;;1.3;0.6;;;;;;;20.73;24.7998;948.0966;;;;
2022/02/09 12:16:02;;;;;;;0.6;0.6;;;;;;;20.74;25.16211;948.0187;;;;
2022/02/09 12:18:25;;;;;;;1.2;0.8;;;;;;;21.28;24.61914;947.9503;;;;
2022/02/09 12:20:48;;;;;;;0.7;0.6;;;;;;;23.98;22.02637;948.0086;;;;
2022/02/09 12:23:14;;;;;;;1;0.7;;;;;;;25.37;20.97266;947.9406;;;;
2022/02/09 12:25:33;;;;;;;1.2;1.1;;;;;;;25.97;19.74707;947.8897;;;;
2022/02/09 12:28:01;;;;;;;0.6;0.6;;;;;;;27.33;18.44336;947.8738;;;;
2022/02/09 12:30:26;;;;;;;0.7;0.7;;;;;;;28.12;17.92871;947.8175;;;;
2022/02/09 12:32:53;;;;;;;1.8;0.7;;;;;;;28.71;17.25098;947.7594;;;;
2022/02/09 12:35:18;;;;;;;0.7;0.7;;;;;;;29.48;16.43457;947.7497;;;;
2022/02/09 12:37:44;;;;;;;0.6;0.6;;;;;;;30.05;16.13281;947.75;;;;
2022/02/09 12:40:15;;;;;;;0.8;0.7;;;;;;;30.09;15.72852;947.6867;;;;
2022/02/09 12:42:42;;;;;;;0.5;0.5;;;;;;;30.15;15.52734;947.6849;;;;
2022/02/09 12:45:11;;;;;;;1.5;0.6;;;;;;;30.35;15.2002;947.6485;;;;
2022/02/09 12:47:39;;;;;;;0.6;0.6;;;;;;;30.23;15.50684;947.5853;;;;
2022/02/09 12:50:04;;;;;;;0.6;0.5;;;;;;;29.75;15.53809;947.5;;;;
2022/02/09 12:52:32;;;;;;;0.6;0.6;;;;;;;30.59;15.08887;947.4099;;;;
2022/02/09 12:54:57;;;;;;;0.5;0.5;;;;;;;31.35;14.63574;947.4009;;;;
2022/02/09 12:57:24;;;;;;;0.7;0.7;;;;;;;32.17;13.89453;947.4675;;;;
2022/02/09 12:59:49;;;;;;;0.8;0.8;;;;;;;32.64;13.48926;947.3776;;;;
2022/02/09 13:02:17;;;;;;;0.7;0.6;;;;;;;32.93;13.4502;947.4523;;;;
2022/02/09 13:04:43;;;;;;;0.7;0.7;;;;;;;32.94;13.83398;947.3741;;;;
2022/02/09 13:07:10;;;;;;;0.7;0.6;;;;;;;31.54;14.89258;947.3169;;;;
2022/02/09 13:09:35;;;;;;;0.8;0.8;;;;;;;31.48;15.1543;947.2453;;;;
2022/02/09 13:12:00;;;;;;;0.6;0.6;;;;;;;31.77;14.99609;947.2108;;;;
2022/02/09 13:14:37;;;;;;;0.7;0.7;;;;;;;31.17;15.52637;947.1997;;;;
2022/02/09 13:17:25;;;;;;;0.9;0.8;;;;;;;30.35;17.67188;947.1317;;;;
2022/02/09 13:20:08;;;;;;;2.2;1.4;;;;;;;30.88;15.67285;947.0986;;;;
2022/02/09 14:04:53;;;;;;;2.3;1.1;;;;;;;30.13;17.83008;946.7798;;;;
2022/02/09 14:07:04;;;;;;;1.7;1.1;;;;;;;30.72;16.12109;946.7469;;;;
2022/02/09 14:11:37;;;;;;;3.2;2;;;;;;;30.97;17.80371;946.6939;;;;
2022/02/09 14:14:01;;;;;;;3.5;2.5;;;;;;;30.82;17.25977;946.6855;;;;
2022/02/09 14:16:39;;;;;;;2.2;1.9;;;;;;;29.99;20.84375;946.7326;;;;
2022/02/09 14:19:09;;;;;;;2.2;1.7;;;;;;;28.72;21.43945;946.7147;;;;
2022/02/09 14:31:38;;;;;;;2.7;1.5;;;;;;;28.2;21.91309;946.6746;;;;
2022/02/09 14:34:41;;;;;;;2.1;1.4;;;;;;;27.72;19.73047;946.6805;;;;
2022/02/09 14:53:10;;;;;;;4;1.9;;;;;;;22.37;30.05273;946.6266;;;;
2022/02/09 14:55:44;;;;;;;2.6;1.5;;;;;;;21.78;29.59082;946.6568;;;;
2022/02/09 14:58:04;;;;;;;4.7;3;;;;;;;20.9;32.10352;946.6572;;;;
2022/02/09 15:00:23;;;;;;;5.7;3.4;;;;;;;20.14;32.52734;946.6408;;;;
2022/02/09 15:03:00;;;;;;;7.7;4.6;;;;;;;19.15;35.44824;946.7051;;;;
2022/02/09 15:06:09;;;;;;;9.2;6.7;;;;;;;18.2;37.41602;946.6233;;;;
2022/02/09 15:07:52;;;;;;;14.5;10.8;;;;;;;17.25;39.90918;946.59;;;;
2022/02/09 15:10:18;;;;;;;7;5.6;;;;;;;16.34;42.99707;946.5861;;;;
2022/02/09 15:12:52;;;;;;;8.3;5.6;;;;;;;15.35;43.85742;946.6244;;;;
2022/02/09 15:15:22;;;;;;;8.4;7.2;;;;;;;14.67;45.69043;946.67;;;;
2022/02/09 15:17:44;;;;;;;9.9;6.1;;;;;;;13.91;48.18945;946.6627;;;;
2022/02/09 15:20:38;;;;;;;5.3;3.6;;;;;;;13.18;50.95801;946.6476;;;;
2022/02/09 15:22:33;;;;;;;5.4;2.9;;;;;;;12.45;52.24805;946.7103;;;;
2022/02/09 15:24:55;;;;;;;5.7;2.8;;;;;;;11.45;55.57227;946.7484;;;;
2022/02/09 15:27:21;;;;;;;4;2.9;;;;;;;10.76;58.03125;946.7726;;;;
2022/02/09 15:29:53;;;;;;;7;3.5;;;;;;;10.23;59.34082;946.7351;;;;
2022/02/09 15:32:25;;;;;;;8;4.2;;;;;;;9.61;59.02832;946.6713;;;;
2022/02/09 15:34:46;;;;;;;6.7;4;;;;;;;9.55;58.96094;946.7162;;;;
2022/02/09 15:37:14;;;;;;;7.6;3.5;;;;;;;9.1;57.86523;946.7216;;;;
2022/02/09 15:39:37;;;;;;;7.2;3.9;;;;;;;9.01;60.16309;946.6516;;;;
2022/02/09 15:42:10;;;;;;;5.1;3.6;;;;;;;8.61;62.1748;946.6912;;;;
2022/02/09 15:56:47;;;;;;;7.4;5.2;;;;;;;7.72;67.51465;946.6686;;;;
2022/02/09 15:59:34;;;;;;;8.8;5.4;;;;;;;7.62;67.86328;946.6552;;;;
2022/02/09 16:06:33;;;;;;;9.4;6;;;;;;;7.34;67.83008;946.6345;;;;
2022/02/09 16:09:10;;;;;;;6.8;4.6;;;;;;;7.05;70.45605;946.6286;;;;
2022/02/09 16:11:23;;;;;;;7.3;4.9;;;;;;;6.76;71.6084;946.6475;;;;
2022/02/09 16:16:49;;;;;;;5;3.7;;;;;;;6.31;72.39258;946.6813;;;;
2022/02/09 16:21:44;;;;;;;5.8;3.9;;;;;;;6.3;72.45996;946.6447;;;;
2022/02/09 16:23:39;;;;;;;9.8;5.5;;;;;;;6.28;72.39844;946.7047;;;;
2022/02/09 16:33:11;;;;;;;8.5;6.1;;;;;;;6.24;71.46387;946.6967;;;;
2022/02/09 16:33:35;;;;;;;10.7;6.5;;;;;;;5.79;71.07422;946.7597;;;;
2022/02/09 16:36:42;;;;;;;10.4;6.6;;;;;;;5.84;71.19629;946.7449;;;;
2022/02/09 16:38:35;;;;;;;11.7;8.9;;;;;;;5.83;71.36133;946.7276;;;;
2022/02/09 16:45:44;;;;;;;42.5;24.3;;;;;;;5.46;73.73828;946.7498;;;;
2022/02/09 16:48:03;;;;;;;19.8;12.5;;;;;;;5.32;74.78516;946.7996;;;;
2022/02/09 16:50:38;;;;;;;12.9;7.9;;;;;;;5.15;74.75488;946.7634;;;;
2022/02/09 16:53:03;;;;;;;9.3;6;;;;;;;4.83;75.51172;946.8244;;;;
2022/02/09 16:55:51;;;;;;;8.2;5.7;;;;;;;4.61;76.2041;946.7708;;;;
2022/02/09 17:19:46;;;;;;;17.7;12.2;;;;;;;4.08;77.91992;946.8625;;;;
2022/02/09 17:22:17;;;;;;;24.8;16.6;;;;;;;3.89;78.62695;946.7603;;;;
2022/02/09 17:24:53;;;;;;;32.4;21;;;;;;;3.74;79.20703;946.9114;;;;
2022/02/09 17:27:21;;;;;;;40.1;25;;;;;;;3.76;77.71582;946.8705;;;;
2022/02/09 17:30:05;;;;;;;37.2;23.2;;;;;;;3.76;77.25488;946.8907;;;;
2022/02/09 17:32:19;;;;;;;28.2;17.4;;;;;;;3.67;77.48633;946.8267;;;;
2022/02/09 17:34:57;;;;;;;37.7;24.1;;;;;;;3.68;76.81348;946.7452;;;;
2022/02/09 17:37:29;;;;;;;41.1;25.4;;;;;;;3.53;77.45996;946.8606;;;;
2022/02/09 17:54:42;;;;;;;23.4;17.9;;;;;;;3.56;76.71387;946.8973;;;;
2022/02/09 17:56:48;;;;;;;25.2;19.4;;;;;;;3.61;76.8584;946.9247;;;;
2022/02/09 17:59:05;;;;;;;25.4;18.8;;;;;;;3.51;77.50098;946.949;;;;
2022/02/09 18:01:32;;;;;;;29.3;21.5;;;;;;;3.42;77.9248;946.9031;;;;
2022/02/09 18:04:03;;;;;;;32.1;23.2;;;;;;;3.36;77.98047;946.9045;;;;
2022/02/09 18:06:34;;;;;;;29.4;22.4;;;;;;;3.28;79.06348;946.9302;;;;
2022/02/09 18:09:05;;;;;;;59.8;36.6;;;;;;;3.07;79.26074;946.9177;;;;
2022/02/09 18:11:40;;;;;;;56.7;35.3;;;;;;;3.05;79.23535;946.8791;;;;
2022/02/09 18:14:18;;;;;;;51.9;33.3;;;;;;;3.04;79.17871;946.9031;;;;
2022/02/09 18:29:16;;;;;;;39.5;25.1;;;;;;;2.58;82.23145;946.8477;;;;
2022/02/09 18:31:37;;;;;;;40.7;28.4;;;;;;;2.42;82.7373;946.8845;;;;
2022/02/09 18:34:18;;;;;;;47.7;31.3;;;;;;;2.6;81.99805;946.7509;;;;
2022/02/09 18:39:34;;;;;;;65.5;47.4;;;;;;;2.44;82.66113;946.8067;;;;
2022/02/09 18:42:23;;;;;;;70.7;48.8;;;;;;;2.16;83.75977;946.8272;;;;
2022/02/09 18:43:56;;;;;;;36.5;26.4;;;;;;;2.05;84.70215;946.7639;;;;
2022/02/09 18:46:22;;;;;;;37.8;28.3;;;;;;;1.96;85.05371;946.7322;;;;
2022/02/09 18:49:03;;;;;;;34.4;24.9;;;;;;;2.03;84.89844;946.8109;;;;
2022/02/09 19:03:27;;;;;;;36.8;27.2;;;;;;;;;;;;;
2022/02/09 19:05:43;;;;;;;43.2;31.6;;;;;;;;;;;;;
2022/02/09 19:08:20;;;;;;;43.8;30.1;;;;;;;;;;;;;
2022/02/09 19:15:47;;;;;;;44.8;29.9;;;;;;;;;;;;;
2022/02/09 19:17:49;;;;;;;43.4;29.5;;;;;;;;;;;;;
2022/02/09 19:20:25;;;;;;;44.8;30.6;;;;;;;;;;;;;
2022/02/09 19:30:01;;;;;;;48.8;30.4;;;;;;;;;;;;;
2022/02/09 19:32:44;;;;;;;43.2;29;;;;;;;;;;;;;
2022/02/09 19:42:52;;;;;;;42.2;27.3;;;;;;;;;;;;;
2022/02/09 19:46:54;;;;;;;42.2;29;;;;;;;;;;;;;
2022/02/09 19:49:21;;;;;;;40.3;29;;;;;;;;;;;;;
2022/02/09 19:51:45;;;;;;;45.9;31.4;;;;;;;;;;;;;
2022/02/09 19:54:12;;;;;;;40.5;29;;;;;;;;;;;;;
2022/02/09 19:56:30;;;;;;;41.8;31.4;;;;;;;;;;;;;
2022/02/09 19:59:00;;;;;;;38.3;27.2;;;;;;;;;;;;;
2022/02/09 20:01:24;;;;;;;32.7;22;;;;;;;;;;;;;
2022/02/09 20:03:50;;;;;;;32;22.6;;;;;;;;;;;;;
2022/02/09 20:06:15;;;;;;;32.6;22.5;;;;;;;;;;;;;
2022/02/09 20:08:40;;;;;;;34.8;24.6;;;;;;;;;;;;;
2022/02/09 20:11:05;;;;;;;37;24.1;;;;;;;;;;;;;
2022/02/09 20:13:32;;;;;;;37.9;23.2;;;;;;;;;;;;;
2022/02/09 20:15:59;;;;;;;41.7;23.9;;;;;;;;;;;;;
2022/02/09 20:18:26;;;;;;;41.2;23.9;;;;;;;;;;;;;
2022/02/09 20:20:54;;;;;;;37.4;24.6;;;;;;;;;;;;;
2022/02/09 20:23:17;;;;;;;32;20.5;;;;;;;;;;;;;
2022/02/09 20:25:43;;;;;;;34;21.6;;;;;;;;;;;;;
2022/02/09 20:28:08;;;;;;;28.6;20.1;;;;;;;;;;;;;
2022/02/09 20:30:39;;;;;;;28.1;21;;;;;;;;;;;;;
2022/02/09 20:33:03;;;;;;;31.8;22.6;;;;;;;;;;;;;
2022/02/09 20:35:25;;;;;;;31.7;22.7;;;;;;;;;;;;;
2022/02/09 20:37:52;;;;;;;29.9;19.7;;;;;;;;;;;;;
2022/02/09 20:40:20;;;;;;;28.6;19.7;;;;;;;;;;;;;
2022/02/09 20:42:49;;;;;;;26.8;19.3;;;;;;;;;;;;;
2022/02/09 20:45:12;;;;;;;20.4;14.3;;;;;;;;;;;;;
2022/02/09 20:47:32;;;;;;;20.2;14.4;;;;;;;;;;;;;
2022/02/09 20:49:57;;;;;;;22.5;15.5;;;;;;;;;;;;;
2022/02/09 20:52:22;;;;;;;20.7;15.5;;;;;;;;;;;;;
2022/02/09 20:54:48;;;;;;;24;16.2;;;;;;;;;;;;;
2022/02/09 20:57:13;;;;;;;22.8;14.2;;;;;;;;;;;;;
2022/02/09 20:59:44;;;;;;;23;15.7;;;;;;;;;;;;;
2022/02/09 21:02:18;;;;;;;23;14.9;;;;;;;;;;;;;
2022/02/09 21:04:31;;;;;;;20.6;13.4;;;;;;;;;;;;;
2022/02/09 21:07:04;;;;;;;14.3;10;;;;;;;;;;;;;
2022/02/09 21:09:28;;;;;;;12.7;9.5;;;;;;;;;;;;;
2022/02/09 21:11:55;;;;;;;14.9;10.1;;;;;;;;;;;;;
2022/02/09 21:14:17;;;;;;;10.4;7.8;;;;;;;;;;;;;
2022/02/09 21:16:45;;;;;;;10.8;7.6;;;;;;;;;;;;;
2022/02/09 21:19:21;;;;;;;14.5;10.2;;;;;;;;;;;;;
2022/02/09 21:21:50;;;;;;;13.7;10.1;;;;;;;;;;;;;
2022/02/09 21:24:22;;;;;;;17;12.5;;;;;;;;;;;;;
2022/02/09 21:26:47;;;;;;;24.8;16.9;;;;;;;;;;;;;
2022/02/09 21:41:57;;;;;;;22.6;15.4;;;;;;;;;;;;;
2022/02/09 21:53:12;;;;;;;22.4;14.9;;;;;;;;;;;;;
2022/02/09 21:55:47;;;;;;;19.8;13.1;;;;;;;;;;;;;
2022/02/09 21:57:53;;;;;;;15.8;10.8;;;;;;;;;;;;;
2022/02/09 22:00:32;;;;;;;14.2;10;;;;;;;;;;;;;
2022/02/09 22:16:18;;;;;;;16.8;11.6;;;;;;;;;;;;;
2022/02/09 22:19:46;;;;;;;14.5;10.4;;;;;;;;;;;;;
2022/02/09 22:22:14;;;;;;;15.6;11.3;;;;;;;;;;;;;
2022/02/09 22:25:39;;;;;;;12.9;9.3;;;;;;;;;;;;;
2022/02/09 22:27:09;;;;;;;13.7;9.3;;;;;;;;;;;;;
2022/02/09 22:29:30;;;;;;;13.9;9.2;;;;;;;;;;;;;
2022/02/09 22:31:51;;;;;;;13.9;9.4;;;;;;;;;;;;;
2022/02/09 22:47:01;;;;;;;6.9;4.7;;;;;;;;;;;;;
2022/02/09 22:48:48;;;;;;;5.3;3.3;;;;;;;;;;;;;
2022/02/09 22:54:27;;;;;;;10.4;6.4;;;;;;;;;;;;;
2022/02/09 22:55:50;;;;;;;7.9;5.8;;;;;;;;;;;;;
2022/02/09 22:58:17;;;;;;;10;7;;;;;;;;;;;;;
2022/02/09 23:00:50;;;;;;;12.3;7.6;;;;;;;;;;;;;
2022/02/09 23:03:09;;;;;;;12.5;8.8;;;;;;;;;;;;;
2022/02/09 23:05:46;;;;;;;15.1;9;;;;;;;;;;;;;
2022/02/09 23:08:13;;;;;;;14.8;9.9;;;;;;;;;;;;;
2022/02/09 23:10:32;;;;;;;13;8.6;;;;;;;;;;;;;
2022/02/09 23:12:54;;;;;;;11.5;7.7;;;;;;;;;;;;;
2022/02/09 23:15:30;;;;;;;11.2;7.3;;;;;;;;;;;;;
2022/02/09 23:18:21;;;;;;;7.7;5.5;;;;;;;;;;;;;
2022/02/09 23:22:57;;;;;;;7.7;4.9;;;;;;;;;;;;;
2022/02/09 23:25:30;;;;;;;8.6;4.7;;;;;;;;;;;;;
2022/02/09 23:54:33;;;;;;;10.7;7.3;;;;;;;;;;;;;
2022/02/09 23:56:55;;;;;;;11.9;7.7;;;;;;;;;;;;;
